• Join FlightAware (Why Join?)
  • Login
  • US Flag 
06:41AM EST


 

Airport Tracker/Info


-or-


 

Live Flight TrackerFlight Track Log ✈ DAL110 ✈ 07-May-2013 ✈ KATL - KLAX

Flight Track Log - Related Links

Times and Time Zones

All times are in EDT time to prevent confusion due to time zone crossing. See the DAL110 flight status page for this flight to view local times or setup timezone preferences in your user account.

Time Position Orientation Groundspeed Altitude Reporting Facility
EDT Latitude Longitude Course Direction KTS MPH feet Rate Location/Type
08:50AM 33.6350 -84.4560 269° West 170 196 2,100  Level FlightAware
08:51AM 33.6350 -84.4800 270° West 195 224 2,800 1,500 Climbing FlightAware
08:51AM 33.6350 -84.4920 270° West 206 237 3,100 720 Climbing FlightAware
08:52AM 33.6350 -84.5350 270° West 217 250 3,400 2,520 Climbing FlightAware
08:52AM 33.6350 -84.5950 270° West 273 314 6,100 2,700 Climbing FlightAware
08:53AM 33.6340 -84.6300 268° West 273 314 6,100 3,600 Level FlightAware
08:53AM 33.6340 -84.6560 270° West 275 316 8,500 3,600 Climbing FlightAware
08:53AM 33.6340 -84.6980 270° West 275 316 8,800 1,260 Climbing FlightAware
08:54AM 33.6430 -84.7660 279° West 312 359 10,000 960 Climbing FlightAware
08:55AM 33.6650 -84.8440 289° West 347 399 10,200 1,680 Climbing FlightAware
08:55AM 33.6820 -84.9050 289° West 360 414 12,100 1,500 Climbing FlightAware
08:56AM 33.7020 -84.9800 288° West 360 414 12,100  Level FlightAware
08:57AM 33.7240 -85.0610 288° West 360 414 12,100 2,880 Level FlightAware
08:58AM 33.7500 -85.1610 287° West 16,500 4,800 Climbing FlightAware
08:58AM 33.7660 -85.2250 287° West 373 429 18,100 3,120 Climbing FlightAware
08:59AM 33.7840 -85.3250 282° West 380 437 20,700 1,680 Climbing FlightAware
09:00AM 33.7970 -85.4060 281° West 380 437 20,700  Level FlightAware
09:00AM 33.8080 -85.4770 281° West 380 437 20,700  Level FlightAware
09:01AM 33.8200 -85.5470 282° West 380 437 20,700  Level FlightAware
09:02AM 33.8340 -85.6360 281° West 380 437 20,700  Level FlightAware
09:03AM 33.8450 -85.7060 281° West 380 437 20,700 11,220 Level FlightAware
09:03AM 33.8958 -85.8292 296° West 417 480 31,400 15,180 Climbing FlightAware ADS-B
09:03AM 33.9167 -85.8949 291° West 418 481 32,600 1,560 Climbing FlightAware ADS-B
09:04AM 33.9405 -85.9695 291° West 432 497 33,100 1,080 Climbing FlightAware ADS-B
09:05AM 33.9698 -86.0625 291° West 433 498 34,000 1,500 Climbing FlightAware ADS-B
09:05AM 33.9923 -86.1369 290° West 432 497 35,000 1,560 Climbing FlightAware ADS-B
09:06AM 34.0151 -86.2186 289° West 436 502 35,800 1,500 Climbing FlightAware ADS-B
09:07AM 34.0600 -86.3780 289° West 441 507 37,800 1,080 Climbing FlightAware
09:08AM 34.0890 -86.4800 289° West 439 505 38,000 120 Climbing FlightAware
09:08AM 34.0730 -86.4250 109° East 440 506 38,000  Level FlightAware
09:09AM 34.1245 -86.6067 289° West 438 504 38,000  Level FlightAware ADS-B
09:09AM 34.1420 -86.6690 289° West 440 506 38,000  Level FlightAware
09:09AM 34.1590 -86.7297 289° West 438 504 38,000  Level FlightAware ADS-B
09:10AM 34.1867 -86.8291 289° West 435 501 38,000  Level FlightAware ADS-B
09:11AM 34.2247 -86.9758 289° West 431 496 38,000  Level Memphis Center
09:12AM 34.2614 -87.1003 290° West 431 496 38,000  Level Memphis Center
09:13AM 34.3050 -87.2544 289° West 444 511 38,000  Level Memphis Center
09:14AM 34.3439 -87.3939 289° West 444 511 38,000  Level Memphis Center
09:15AM 34.3825 -87.5333 289° West 439 505 38,000  Level Memphis Center
09:16AM 34.4169 -87.6733 287° West 431 496 38,000  Level Memphis Center
09:17AM 34.4533 -87.8156 287° West 438 504 38,000  Level Memphis Center
09:18AM 34.4914 -87.9406 290° West 438 504 38,000  Level Memphis Center
09:19AM 34.5275 -88.0833 287° West 438 504 38,000  Level Memphis Center
09:20AM 34.5700 -88.2461 288° West 447 514 38,000  Level Memphis Center
09:21AM 34.6078 -88.3864 288° West 452 520 38,000  Level Memphis Center
09:22AM 34.6389 -88.5069 287° West 440 506 38,000  Level Memphis Center
09:23AM 34.6764 -88.6500 288° West 430 495 38,000  Level Memphis Center
09:24AM 34.7181 -88.8008 289° West 436 502 38,000  Level Memphis Center
09:25AM 34.7531 -88.9442 287° West 436 502 38,000  Level Memphis Center
09:26AM 34.7881 -89.0828 287° West 436 502 38,000  Level Memphis Center
09:27AM 34.8247 -89.2264 287° West 441 507 38,000  Level Memphis Center
09:28AM 34.8614 -89.3650 288° West 441 507 38,000  Level Memphis Center
09:29AM 34.8981 -89.5089 287° West 441 507 38,000  Level Memphis Center
09:30AM 34.9364 -89.6528 288° West 441 507 38,000  Level Memphis Center
09:31AM 34.9581 -89.8022 280° West 441 507 38,000  Level Memphis Center
09:32AM 34.9775 -89.9567 279° West 462 532 38,000  Level Memphis Center
09:33AM 34.9883 -90.1061 275° West 457 526 38,000  Level Memphis Center
09:34AM 35.0011 -90.2558 276° West 457 526 38,000  Level Memphis Center
09:35AM 35.0114 -90.4053 275° West 444 511 38,000  Level Memphis Center
09:36AM 35.0239 -90.5522 276° West 444 511 38,000  Level Memphis Center
09:37AM 35.0339 -90.6994 275° West 444 511 38,000  Level Memphis Center
09:38AM 35.0461 -90.8492 276° West 444 511 38,000  Level Memphis Center
09:39AM 35.0558 -90.9989 275° West 444 511 38,000  Level Memphis Center
09:40AM 35.0694 -91.1486 276° West 446 513 38,000  Level Memphis Center
09:41AM 35.0792 -91.2808 275° West 446 513 38,000  Level Memphis Center
09:42AM 35.0883 -91.4281 274° West 441 507 38,000  Level Memphis Center
09:43AM 35.0975 -91.5778 274° West 441 507 38,000  Level Memphis Center
09:44AM 35.1064 -91.7253 274° West 441 507 38,000  Level Memphis Center
09:45AM 35.1150 -91.8775 274° West 446 513 38,000  Level Memphis Center
09:46AM 35.1256 -92.0250 275° West 446 513 38,000  Level Memphis Center
09:47AM 35.1381 -92.1753 276° West 446 513 38,000  Level Memphis Center
09:48AM 35.1442 -92.3278 273° West 446 513 38,000  Level Memphis Center
09:49AM 35.1542 -92.4803 275° West 446 513 38,000  Level Memphis Center
09:50AM 35.1639 -92.6328 275° West 446 513 38,000  Level Memphis Center
09:51AM 35.1756 -92.7933 275° West 461 531 38,000  Level Memphis Center
09:52AM 35.1831 -92.9383 274° West 455 524 38,000  Level Memphis Center
09:58AM 35.2280 -93.7970 274° West 445 512 38,000  Level FlightAware
09:59AM 35.2330 -93.8990 273° West 446 513 38,000  Level FlightAware
09:59AM 35.2400 -94.0320 274° West 447 514 38,000  Level FlightAware
10:00AM 35.2430 -94.1180 272° West 447 514 38,000  Level FlightAware
10:01AM 35.2470 -94.2040 273° West 447 514 38,000  Level FlightAware
10:01AM 35.2510 -94.2900 273° West 447 514 38,000  Level FlightAware
10:02AM 35.2550 -94.3970 273° West 447 514 38,000  Level FlightAware
10:03AM 35.2660 -94.6000 274° West 448 516 38,000  Level FlightAware
10:04AM 35.2700 -94.6930 273° West 447 514 38,000  Level FlightAware
10:05AM 35.2730 -94.7940 272° West 447 514 38,000  Level FlightAware
10:05AM 35.2790 -94.9290 273° West 448 516 38,000  Level FlightAware
10:06AM 35.2840 -95.0560 273° West 448 516 38,000  Level FlightAware
10:07AM 35.2870 -95.1420 272° West 448 516 38,000  Level FlightAware
10:08AM 35.2890 -95.2290 272° West 448 516 38,000  Level FlightAware
10:08AM 35.2920 -95.3360 272° West 448 516 38,000  Level FlightAware
10:09AM 35.2940 -95.4230 272° West 448 516 38,000  Level FlightAware
10:10AM 35.2970 -95.5090 272° West 448 516 38,000  Level FlightAware
10:10AM 35.2990 -95.5950 272° West 448 516 38,000  Level FlightAware
10:11AM 35.3120 -95.8180 274° West 444 511 38,000  Level FlightAware
10:12AM 35.3160 -95.9400 272° West 440 506 38,000  Level FlightAware
10:13AM 35.3200 -96.0540 272° West 439 505 38,000  Level FlightAware
10:13AM 35.3230 -96.1510 272° West 439 505 38,000  Level FlightAware
10:14AM 35.3260 -96.2650 272° West 439 505 38,000  Level FlightAware
10:15AM 35.3290 -96.3680 272° West 440 506 38,000  Level FlightAware
10:16AM 35.3320 -96.4730 272° West 440 506 38,000  Level FlightAware
10:16AM 35.3350 -96.5740 272° West 438 504 38,000  Level FlightAware
10:17AM 35.3380 -96.6810 272° West 437 503 38,000  Level FlightAware
10:18AM 35.3410 -96.7780 272° West 437 503 38,000  Level FlightAware
10:18AM 35.3430 -96.8840 271° West 438 504 38,000  Level FlightAware
10:19AM 35.3460 -96.9900 272° West 441 507 38,000  Level FlightAware
10:20AM 35.3470 -97.0850 271° West 441 507 38,000  Level FlightAware
10:20AM 35.3500 -97.1920 272° West 434 499 38,000  Level FlightAware
10:21AM 35.3520 -97.2930 271° West 433 498 38,000  Level FlightAware
10:22AM 35.3550 -97.4010 272° West 433 498 38,000  Level FlightAware
10:23AM 35.3570 -97.5130 271° West 433 498 38,000  Level FlightAware
10:23AM 35.3580 -97.5980 271° West 432 497 38,000  Level FlightAware
10:24AM 35.3590 -97.6960 271° West 430 495 38,000  Level FlightAware
10:25AM 35.3610 -97.8160 271° West 429 494 38,000  Level FlightAware
10:25AM 35.3620 -97.9190 271° West 433 498 38,000  Level FlightAware
10:26AM 35.3630 -98.0240 271° West 431 496 38,000  Level FlightAware
10:27AM 35.3630 -98.0980 270° West 430 495 38,000  Level FlightAware
10:28AM 35.3630 -98.2010 270° West 430 495 38,000  Level FlightAware
10:28AM 35.3630 -98.2840 270° West 430 495 38,000  Level FlightAware
10:29AM 35.3630 -98.3670 270° West 430 495 38,000  Level FlightAware
10:30AM 35.3630 -98.4500 270° West 430 495 38,000  Level FlightAware
10:30AM 35.3630 -98.5330 270° West 430 495 38,000  Level FlightAware
10:31AM 35.3630 -98.6370 270° West 430 495 38,000  Level FlightAware
10:32AM 35.3630 -98.7200 270° West 430 495 38,000  Level FlightAware
10:32AM 35.3630 -98.8030 270° West 430 495 38,000  Level FlightAware
10:33AM 35.3630 -98.8860 270° West 430 495 38,000  Level FlightAware
10:34AM 35.3630 -98.9690 270° West 430 495 38,000  Level FlightAware
10:35AM 35.3630 -99.0720 270° West 430 495 38,000  Level FlightAware
10:35AM 35.3630 -99.1550 270° West 430 495 38,000  Level FlightAware
10:36AM 35.3630 -99.2380 270° West 430 495 38,000  Level FlightAware
10:37AM 35.3767 -99.4783 270° West 405 466 38,000  Level Fort Worth Center
10:37AM 35.3700 -99.5247 260° West 404 465 38,000  Level Albuquerque Center
10:38AM 35.3689 -99.6625 269° West 404 465 38,000  Level Albuquerque Center
10:39AM 35.3678 -99.8006 269° West 405 466 38,000  Level Albuquerque Center
10:40AM 35.3683 -99.9372 270° West 405 466 38,000  Level Albuquerque Center
10:41AM 35.3672 -100.1022 270° West 404 465 38,000  Level Albuquerque Center
10:42AM 35.3658 -100.2403 269° West 406 467 38,000  Level Albuquerque Center
10:43AM 35.3647 -100.3789 269° West 408 470 38,000  Level Albuquerque Center
10:44AM 35.3622 -100.5175 269° West 409 471 38,000  Level Albuquerque Center
10:45AM 35.3619 -100.6569 270° West 410 472 38,000  Level Albuquerque Center
10:46AM 35.3606 -100.7967 269° West 412 474 38,000  Level Albuquerque Center
10:47AM 35.3594 -100.9378 269° West 414 476 38,000  Level Albuquerque Center
10:48AM 35.3581 -101.1061 269° West 413 475 38,000  Level Albuquerque Center
10:49AM 35.3550 -101.2464 269° West 414 476 38,000  Level Albuquerque Center
10:50AM 35.3531 -101.3806 269° West 416 479 38,000  Level Albuquerque Center
10:51AM 35.3506 -101.5242 269° West 417 480 38,000  Level Albuquerque Center
10:52AM 35.3489 -101.6933 269° West 423 487 38,000  Level Albuquerque Center
10:53AM 35.3433 -101.8367 267° West 418 481 38,000  Level Albuquerque Center
10:54AM 35.3392 -101.9747 268° West 417 480 38,000  Level Albuquerque Center
10:56AM 35.3358 -102.1150 268° West 417 480 38,000  Level Albuquerque Center
10:57AM 35.3328 -102.2572 269° West 419 482 38,000  Level Albuquerque Center
10:58AM 35.3286 -102.3994 268° West 419 482 38,000  Level Albuquerque Center
10:59AM 35.3239 -102.5708 268° West 421 484 38,000  Level Albuquerque Center
11:00AM 35.3219 -102.6975 269° West 419 482 38,000  Level Albuquerque Center
11:01AM 35.3175 -102.8653 268° West 419 482 38,000  Level Albuquerque Center
11:02AM 35.3125 -103.0092 268° West 421 484 38,000  Level Albuquerque Center
11:03AM 35.3081 -103.1536 268° West 421 484 38,000  Level Albuquerque Center
11:04AM 35.3039 -103.2981 268° West 422 486 38,000  Level Albuquerque Center
11:05AM 35.2989 -103.4436 268° West 424 488 38,000  Level Albuquerque Center
11:06AM 35.2936 -103.5900 268° West 426 490 38,000  Level Albuquerque Center
11:07AM 35.2886 -103.7356 268° West 426 490 38,000  Level Albuquerque Center
11:08AM 35.2817 -103.9056 267° West 426 490 38,000  Level Albuquerque Center
11:09AM 35.2772 -104.0336 268° West 425 489 38,000  Level Albuquerque Center
11:10AM 35.2719 -104.1767 267° West 423 487 38,000  Level Albuquerque Center
11:11AM 35.2633 -104.3503 267° West 427 491 38,000  Level Albuquerque Center
11:12AM 35.2575 -104.4947 267° West 426 490 38,000  Level Albuquerque Center
11:13AM 35.2503 -104.6483 267° West 428 493 38,000  Level Albuquerque Center
11:14AM 35.2433 -104.7956 267° West 429 494 38,000  Level Albuquerque Center
11:20AM 35.2000 -105.6840 267° West 437 503 38,000  Level FlightAware
11:21AM 35.1960 -105.7620 266° West 438 504 38,000  Level FlightAware
11:22AM 35.1890 -105.8910 266° West 443 510 38,000  Level FlightAware
11:22AM 35.1830 -105.9920 266° West 444 511 38,000  Level FlightAware
11:23AM 35.1770 -106.1080 266° West 443 510 38,000  Level FlightAware
11:24AM 35.1710 -106.2060 266° West 443 510 38,000  Level FlightAware
11:24AM 35.1650 -106.3180 266° West 446 513 38,000  Level FlightAware
11:25AM 35.1590 -106.4190 266° West 440 506 38,000  Level FlightAware
11:26AM 35.1530 -106.5160 266° West 437 503 38,000  Level FlightAware
11:26AM 35.1460 -106.6300 266° West 437 503 38,000  Level FlightAware
11:27AM 35.1400 -106.7260 266° West 437 503 38,000  Level FlightAware
11:28AM 35.1340 -106.8320 266° West 436 502 38,000  Level FlightAware
11:29AM 35.1270 -106.9330 265° West 434 499 38,000  Level FlightAware
11:29AM 35.1210 -107.0310 266° West 433 498 38,000  Level FlightAware
11:30AM 35.1140 -107.1420 266° West 432 497 38,000  Level FlightAware
11:31AM 35.1080 -107.2380 266° West 430 495 38,000  Level FlightAware
11:31AM 35.1010 -107.3440 265° West 426 490 38,000  Level FlightAware
11:32AM 35.0940 -107.4400 265° West 424 488 38,000  Level FlightAware
11:33AM 35.0880 -107.5350 266° West 422 486 38,000  Level FlightAware
11:33AM 35.0800 -107.6450 265° West 421 484 38,000  Level FlightAware
11:34AM 35.0740 -107.7340 265° West 421 484 38,000  Level FlightAware
11:35AM 35.0670 -107.8310 265° West 421 484 38,000  Level FlightAware
11:36AM 35.0590 -107.9380 265° West 422 486 38,000  Level FlightAware
11:36AM 35.0530 -108.0300 265° West 422 486 38,000  Level FlightAware
11:37AM 35.0450 -108.1420 265° West 421 484 38,000  Level FlightAware
11:38AM 35.0380 -108.2330 265° West 422 486 38,000  Level FlightAware
11:38AM 35.0300 -108.3390 265° West 423 487 38,000  Level FlightAware
11:39AM 35.0200 -108.4590 264° West 422 486 38,000  Level FlightAware
11:40AM 35.0130 -108.5400 264° West 422 486 38,000  Level FlightAware
11:41AM 35.0060 -108.6210 264° West 422 486 38,000  Level FlightAware
11:41AM 34.9970 -108.7660 266° West 423 487 38,000  Level FlightAware
11:42AM 34.9880 -108.8740 264° West 422 486 38,000  Level FlightAware
11:43AM 34.9810 -108.9700 265° West 422 486 38,000  Level FlightAware
11:43AM 34.9730 -109.0640 264° West 422 486 38,000  Level FlightAware
11:44AM 34.9640 -109.1710 264° West 421 484 38,000  Level FlightAware
11:45AM 34.9580 -109.2650 266° West 422 486 38,000  Level FlightAware
11:46AM 34.9520 -109.3600 266° West 421 484 38,000  Level FlightAware
11:46AM 34.9450 -109.4620 265° West 419 482 38,000  Level FlightAware
11:47AM 34.9390 -109.5570 266° West 419 482 38,000  Level FlightAware
11:48AM 34.9300 -109.6800 265° West 419 482 38,000  Level FlightAware
11:49AM 34.9220 -109.7940 265° West 418 481 38,000  Level FlightAware
11:49AM 34.9160 -109.8840 265° West 418 481 38,000  Level FlightAware
11:50AM 34.9080 -109.9920 265° West 417 480 38,000  Level FlightAware
11:51AM 34.9010 -110.0880 265° West 416 479 38,000  Level FlightAware
11:51AM 34.8950 -110.1770 265° West 416 479 38,000  Level FlightAware
11:52AM 34.8870 -110.2840 265° West 415 478 38,000  Level FlightAware
11:53AM 34.8800 -110.3750 265° West 411 473 38,000  Level FlightAware
11:54AM 34.8690 -110.4800 263° West 409 471 38,000  Level FlightAware
11:54AM 34.8570 -110.5700 261° West 408 470 38,000  Level FlightAware
11:55AM 34.8450 -110.6720 262° West 409 471 38,000  Level FlightAware
11:56AM 34.8340 -110.7620 262° West 409 471 38,000  Level FlightAware
11:56AM 34.8230 -110.8530 262° West 408 470 38,000  Level FlightAware
11:57AM 34.8100 -110.9540 261° West 408 470 38,000  Level FlightAware
11:58AM 34.7990 -111.0470 262° West 408 470 38,000  Level FlightAware
11:58AM 34.7860 -111.1480 261° West 409 471 38,000  Level FlightAware
11:59AM 34.7750 -111.2380 262° West 409 471 38,000  Level FlightAware
12:00PM 34.7630 -111.3290 261° West 409 471 38,000  Level FlightAware
12:01PM 34.7500 -111.4360 262° West 410 472 38,000  Level FlightAware
12:01PM 34.7380 -111.5250 261° West 409 471 38,000  Level FlightAware
12:02PM 34.7250 -111.6250 261° West 408 470 38,000  Level FlightAware
12:03PM 34.7130 -111.7150 261° West 407 468 38,000  Level FlightAware
12:03PM 34.7020 -111.8050 262° West 405 466 38,000  Level FlightAware
12:04PM 34.6880 -111.9070 261° West 405 466 38,000  Level FlightAware
12:05PM 34.6760 -111.9970 261° West 405 466 38,000  Level FlightAware
12:05PM 34.6640 -112.0870 261° West 405 466 38,000  Level FlightAware
12:06PM 34.6510 -112.1870 261° West 406 467 38,000  Level FlightAware
12:07PM 34.6390 -112.2750 261° West 406 467 38,000  Level FlightAware
12:08PM 34.6250 -112.3790 261° West 409 471 38,000  Level FlightAware
12:08PM 34.6120 -112.4690 260° West 406 467 38,000  Level FlightAware
12:09PM 34.5990 -112.5680 261° West 404 465 38,000  Level FlightAware
12:10PM 34.5870 -112.6570 261° West 406 467 38,000  Level FlightAware
12:10PM 34.5740 -112.7460 260° West 403 464 38,000  Level FlightAware
12:11PM 34.5600 -112.8490 261° West 403 464 38,000  Level FlightAware
12:12PM 34.5480 -112.9350 260° West 406 467 38,000  Level FlightAware
12:12PM 34.5330 -113.0380 260° West 405 466 38,000  Level FlightAware
12:13PM 34.5200 -113.1270 260° West 403 464 38,000  Level FlightAware
12:14PM 34.5080 -113.2150 261° West 402 463 38,000  Level FlightAware
12:15PM 34.4930 -113.3160 260° West 399 459 38,000  Level FlightAware
12:15PM 34.4800 -113.4040 260° West 395 455 38,000  Level FlightAware
12:16PM 34.4660 -113.5000 260° West 397 457 38,000  Level FlightAware
12:17PM 34.4530 -113.5880 260° West 398 458 38,000  Level FlightAware
12:17PM 34.4400 -113.6770 260° West 399 459 38,000  Level FlightAware
12:18PM 34.4260 -113.7760 260° West 395 455 38,000  Level FlightAware
12:19PM 34.4130 -113.8630 260° West 394 453 38,000  Level FlightAware
12:19PM 34.4000 -113.9490 260° West 394 453 38,000  Level FlightAware
12:20PM 34.3850 -114.0450 259° West 393 452 38,000  Level FlightAware
12:21PM 34.3720 -114.1320 260° West 396 456 38,000  Level FlightAware
12:21PM 34.3590 -114.2190 260° West 398 458 38,000  Level FlightAware
12:22PM 34.3440 -114.3180 260° West 398 458 38,000  Level FlightAware
12:23PM 34.3310 -114.4030 260° West 399 459 38,000  Level FlightAware
12:24PM 34.3170 -114.4990 260° West 401 461 38,000  Level FlightAware
12:24PM 34.3190 -114.4920 71° East 38,000  Level FlightAware
12:24PM 34.3110 -114.5600 262° West 404 465 38,000  Level FlightAware
12:25PM 34.2980 -114.6550 261° West 403 464 38,000  Level FlightAware
12:25PM 34.2890 -114.7310 262° West 403 464 38,000  Level FlightAware
12:26PM 34.2790 -114.8060 261° West 403 464 38,000  Level FlightAware
12:27PM 34.2690 -114.8820 261° West 403 464 38,000  Level FlightAware
12:28PM 34.2490 -115.0300 261° West 413 475 38,000  Level FlightAware
12:28PM 34.2350 -115.1340 261° West 409 471 38,000  Level FlightAware
12:29PM 34.2230 -115.2240 261° West 408 470 38,000  Level FlightAware
12:30PM 34.2110 -115.3160 261° West 409 471 38,000  Level FlightAware
12:30PM 34.1980 -115.4110 261° West 404 465 38,000  Level FlightAware
12:31PM 34.1860 -115.5020 261° West 403 464 38,000  Level FlightAware
12:32PM 34.1720 -115.6000 260° West 402 463 38,000  Level FlightAware
12:32PM 34.1600 -115.6870 261° West 402 463 38,000  Level FlightAware
12:33PM 34.1460 -115.7870 260° West 404 465 38,000  Level FlightAware
12:34PM 34.1340 -115.8710 260° West 406 467 38,000  Level FlightAware
12:35PM 34.1210 -115.9680 261° West 407 468 38,000 -900 Level FlightAware
12:35PM 34.1080 -116.0640 261° West 402 463 36,800 -2,220 Descending FlightAware
12:36PM 34.0940 -116.1570 260° West 400 460 34,900 -2,940 Descending FlightAware
12:37PM 34.0820 -116.2440 261° West 395 455 32,900 -2,760 Descending FlightAware
12:37PM 34.0680 -116.3390 260° West 373 429 31,000 -2,400 Descending FlightAware
12:38PM 34.0580 -116.4110 261° West 362 417 29,700 -2,220 Descending FlightAware
12:39PM 34.0430 -116.5110 260° West 352 405 27,900 -2,100 Descending FlightAware
12:39PM 34.0330 -116.5820 260° West 342 394 26,600 -2,220 Descending FlightAware
12:40PM 34.0210 -116.6660 260° West 336 387 24,800 -2,160 Descending FlightAware
12:41PM 34.0090 -116.7430 259° West 342 394 23,600 -1,620 Descending FlightAware
12:42PM 33.9980 -116.8160 260° West 339 390 22,700 -1,440 Descending FlightAware
12:42PM 33.9880 -116.8900 261° West 330 380 21,700 -1,980 Descending FlightAware
12:43PM 33.9750 -116.9720 259° West 327 376 19,900 -2,400 Descending FlightAware
12:44PM 33.9640 -117.0450 260° West 328 377 18,300 -2,220 Descending FlightAware
12:44PM 33.9530 -117.1250 261° West 344 396 16,800 -1,560 Descending FlightAware
12:45PM 33.9470 -117.2010 265° West 346 398 16,100 -1,080 Descending FlightAware
12:46PM 33.9400 -117.2780 264° West 348 400 15,400 -1,320 Descending FlightAware
12:46PM 33.9340 -117.3600 265° West 351 404 14,300 -1,800 Descending FlightAware
12:47PM 33.9520 -117.4310 287° West 347 399 12,900 -1,920 Descending FlightAware
12:48PM 33.9820 -117.5140 294° West 335 386 11,600 -1,560 Descending FlightAware
12:49PM 34.0060 -117.5810 293° West 320 368 10,700 -1,080 Descending FlightAware
12:49PM 34.0080 -117.6790 271° West 282 325 9,900 -960 Descending FlightAware
12:50PM 34.0030 -117.7240 262° West 271 312 9,400 -1,080 Descending FlightAware
12:50PM 34.0010 -117.7440 263° West 273 314 9,100 -1,380 Descending FlightAware
12:51PM 33.9970 -117.7850 263° West 283 326 8,500 -1,140 Descending FlightAware
12:51PM 33.9920 -117.8330 263° West 270 311 8,100 -540 Descending FlightAware
12:51PM 33.9900 -117.8520 263° West 259 298 8,100 -480 Level FlightAware
12:52PM 33.9870 -117.8870 264° West 238 274 7,800 -900 Descending FlightAware
12:52PM 33.9830 -117.9260 263° West 222 255 7,300 -1,140 Descending FlightAware
12:53PM 33.9800 -117.9540 263° West 202 232 6,800 -1,080 Descending FlightAware
12:53PM 33.9790 -117.9710 266° West 196 226 6,600 -960 Descending FlightAware
12:53PM 33.9750 -118.0040 262° West 197 227 6,100 -1,020 Descending FlightAware
12:54PM 33.9720 -118.0340 263° West 193 222 5,600 -1,020 Descending FlightAware
12:54PM 33.9690 -118.0670 264° West 188 216 5,100 -1,020 Descending FlightAware
12:55PM 33.9670 -118.0920 264° West 187 215 4,700 -1,020 Descending FlightAware
12:55PM 33.9640 -118.1240 264° West 186 214 4,200 -1,020 Descending FlightAware
12:56PM 33.9610 -118.1500 262° West 185 213 3,800 -900 Descending FlightAware
12:56PM 33.9580 -118.1810 263° West 184 212 3,400 -900 Descending FlightAware
12:57PM 33.9550 -118.2120 263° West 186 214 2,900 -1,140 Descending FlightAware
12:57PM 33.9520 -118.2370 262° West 189 217 2,400 -1,080 Descending FlightAware
12:58PM 33.9510 -118.2560 266° West 192 221 2,100 -600 Descending FlightAware
12:58PM 33.9470 -118.2900 262° West 191 220 1,900 -300 Descending FlightAware
12:59PM 33.9450 -118.3010 258° West 179 206 1,700 -300 Descending FlightAware